createdAt,value
2022-09-17T00:03:20.518Z,458.80
2022-09-17T00:10:23.171Z,459.85
2022-09-17T00:17:24.724Z,462.35
2022-09-17T00:24:26.368Z,464.05
2022-09-17T00:31:29.507Z,458.27
2022-09-17T00:38:31.158Z,454.17
2022-09-17T00:45:32.738Z,466.67
2022-09-17T00:52:43.406Z,457.33
2022-09-17T00:59:44.969Z,455.50
2022-09-17T01:06:59.364Z,451.30
2022-09-17T01:14:09.169Z,457.45
2022-09-17T01:21:35.748Z,453.80
2022-09-17T01:28:40.374Z,458.65
2022-09-17T01:35:41.851Z,475.88
2022-09-17T01:43:03.580Z,476.08
2022-09-17T01:50:10.554Z,475.23
2022-09-17T01:57:22.966Z,475.80
2022-09-17T02:04:30.470Z,472.83
2022-09-17T02:11:34.068Z,481.15
2022-09-17T02:18:55.585Z,482.27
2022-09-17T02:26:04.918Z,470.00
2022-09-17T02:33:07.360Z,477.13
2022-09-17T02:40:10.506Z,470.92
2022-09-17T02:47:46.340Z,482.52
2022-09-17T02:55:10.524Z,485.95
2022-09-17T03:02:24.314Z,484.17
2022-09-17T03:09:26.281Z,489.73
2022-09-17T03:16:27.956Z,510.40
2022-09-17T03:23:29.586Z,504.00
2022-09-17T03:30:31.278Z,550.90
2022-09-17T03:37:33.292Z,535.25
2022-09-17T03:44:35.055Z,485.02
2022-09-17T03:51:36.667Z,498.00
2022-09-17T03:58:38.833Z,491.42
2022-09-17T04:05:40.439Z,483.50
2022-09-17T04:12:41.994Z,482.45
2022-09-17T04:19:44.144Z,471.95
2022-09-17T04:26:45.697Z,484.13
2022-09-17T04:33:47.322Z,454.40
2022-09-17T04:40:48.903Z,460.77
2022-09-17T04:47:53.281Z,478.52
2022-09-17T04:54:54.842Z,482.85
2022-09-17T05:01:56.498Z,501.38
2022-09-17T05:08:58.176Z,482.95
2022-09-17T05:15:59.735Z,492.80
2022-09-17T05:23:01.353Z,476.13
2022-09-17T05:30:04.155Z,478.17
2022-09-17T05:37:05.735Z,492.33
2022-09-17T05:44:07.325Z,477.33
2022-09-17T05:51:08.878Z,493.13
2022-09-17T05:58:11.550Z,490.73
2022-09-17T06:05:13.101Z,505.40
2022-09-17T06:12:14.650Z,473.00
2022-09-17T06:19:16.211Z,480.10
2022-09-17T06:26:17.803Z,485.17
2022-09-17T06:33:19.559Z,486.15
2022-09-17T06:40:23.236Z,477.92
2022-09-17T06:47:25.130Z,489.45
2022-09-17T06:54:26.756Z,490.63
2022-09-17T07:01:28.412Z,481.30
2022-09-17T07:08:32.234Z,480.10
2022-09-17T07:15:33.813Z,504.67
2022-09-17T07:22:35.854Z,499.58
2022-09-17T07:29:37.436Z,499.98
2022-09-17T07:36:39.070Z,501.13
2022-09-17T07:43:40.691Z,478.98
2022-09-17T07:50:42.351Z,491.85
2022-09-17T07:57:43.949Z,485.40
2022-09-17T08:04:45.499Z,495.45
2022-09-17T08:12:02.412Z,485.15
2022-09-17T08:19:04.041Z,483.40
2022-09-17T08:26:08.411Z,495.10
2022-09-17T08:33:09.984Z,528.60
2022-09-17T08:40:18.400Z,494.88
2022-09-17T08:47:38.613Z,499.52
2022-09-17T08:54:45.005Z,506.15
2022-09-17T09:02:00.939Z,507.67
2022-09-17T09:09:10.279Z,536.83
2022-09-17T09:16:23.134Z,526.33
2022-09-17T09:23:40.793Z,573.75
2022-09-17T09:30:51.679Z,584.28
2022-09-17T09:38:12.528Z,604.85
2022-09-17T09:45:16.432Z,572.88
2022-09-17T09:52:21.061Z,520.45
2022-09-17T09:59:22.940Z,522.63
2022-09-17T10:06:24.548Z,509.42
2022-09-17T10:13:26.259Z,523.60
2022-09-17T10:20:27.887Z,530.20
2022-09-17T10:27:29.449Z,527.10
2022-09-17T10:34:31.336Z,528.60
2022-09-17T10:41:32.904Z,529.10
2022-09-17T10:48:41.910Z,539.85
2022-09-17T10:56:01.776Z,519.05
2022-09-17T11:03:21.685Z,553.03
2022-09-17T11:10:31.033Z,563.63
2022-09-17T11:17:49.977Z,631.33
2022-09-17T11:24:51.429Z,566.73
2022-09-17T11:32:01.531Z,555.92
2022-09-17T11:39:22.621Z,576.15
2022-09-17T11:46:25.930Z,580.95
2022-09-17T11:53:40.835Z,575.92
2022-09-17T12:00:52.812Z,593.70
2022-09-17T12:08:26.404Z,591.42
2022-09-17T12:15:29.825Z,553.40
2022-09-17T12:22:35.989Z,560.20
2022-09-17T12:30:01.859Z,583.28
2022-09-17T12:37:22.129Z,579.80
2022-09-17T12:44:47.292Z,560.53
2022-09-17T12:51:53.181Z,575.85
2022-09-17T12:59:18.182Z,609.28
2022-09-17T13:06:29.851Z,590.78
2022-09-17T13:13:41.934Z,528.25
2022-09-17T13:21:02.707Z,533.97
2022-09-17T13:28:09.130Z,554.13
2022-09-17T13:35:13.648Z,548.58
2022-09-17T13:42:28.848Z,557.42
2022-09-17T13:49:30.415Z,540.75
2022-09-17T13:56:46.095Z,561.67
2022-09-17T14:03:54.088Z,607.28
2022-09-17T14:10:56.303Z,637.10
2022-09-17T14:17:58.769Z,573.70
2022-09-17T14:25:00.315Z,605.30
2022-09-17T14:32:01.872Z,618.90
2022-09-17T14:39:03.486Z,607.05
2022-09-17T14:46:06.003Z,655.33
2022-09-17T14:53:08.433Z,543.55
2022-09-17T15:00:18.367Z,535.55
2022-09-17T15:07:20.659Z,527.08
2022-09-17T15:14:33.008Z,527.88
2022-09-17T15:21:44.284Z,520.10
2022-09-17T15:28:46.000Z,527.65
2022-09-17T15:36:27.431Z,521.83
2022-09-17T15:43:30.662Z,527.40
2022-09-17T15:50:33.918Z,533.50
2022-09-17T15:57:35.511Z,546.88
2022-09-17T16:04:38.631Z,525.70
2022-09-17T16:11:43.882Z,540.03
2022-09-17T16:18:45.664Z,520.08
2022-09-17T16:25:47.209Z,503.35
2022-09-17T16:32:48.817Z,498.65
2022-09-17T16:39:51.037Z,501.98
2022-09-17T16:46:52.680Z,497.55
2022-09-17T16:53:54.283Z,503.10
2022-09-17T17:00:55.941Z,515.33
2022-09-17T17:07:57.570Z,510.50
2022-09-17T17:14:59.229Z,505.33
2022-09-17T17:22:00.803Z,507.55
2022-09-17T17:29:02.535Z,502.85
2022-09-17T17:36:08.188Z,520.75
2022-09-17T17:43:10.360Z,545.85
2022-09-17T17:50:11.905Z,512.10
2022-09-17T17:57:13.458Z,505.58
2022-09-17T18:04:15.005Z,513.85
2022-09-17T18:11:16.669Z,517.05
2022-09-17T18:18:18.235Z,511.92
2022-09-17T18:25:19.765Z,506.10
2022-09-17T18:32:21.380Z,503.33
2022-09-17T18:46:44.712Z,494.40
2022-09-17T18:53:51.348Z,479.83
2022-09-17T19:00:53.328Z,483.67
2022-09-17T19:07:54.955Z,477.45
2022-09-17T19:14:56.518Z,470.88
2022-09-17T19:21:58.069Z,461.60
2022-09-17T19:29:02.693Z,480.15
2022-09-17T19:36:06.968Z,466.17
2022-09-17T19:43:08.557Z,468.63
2022-09-17T19:50:10.126Z,463.17
2022-09-17T19:57:11.691Z,463.20
2022-09-17T20:04:13.387Z,475.05
2022-09-17T20:11:15.433Z,467.90
2022-09-17T20:18:19.926Z,464.73
2022-09-17T20:25:25.688Z,465.65
2022-09-17T20:32:27.406Z,468.52
2022-09-17T20:39:29.296Z,465.52
2022-09-17T20:46:31.307Z,472.83
2022-09-17T20:53:33.888Z,465.60
2022-09-17T21:00:35.743Z,470.80
2022-09-17T21:07:37.308Z,467.58
2022-09-17T21:14:38.994Z,468.77
2022-09-17T21:21:40.546Z,467.83
2022-09-17T21:28:43.172Z,472.85
2022-09-17T21:35:44.865Z,469.10
2022-09-17T21:42:46.414Z,462.58
2022-09-17T21:49:48.144Z,465.08
2022-09-17T21:56:49.722Z,467.58
2022-09-17T22:03:51.451Z,477.95
2022-09-17T22:10:53.056Z,477.45
2022-09-17T22:17:54.646Z,468.95
2022-09-17T22:24:56.223Z,473.52
2022-09-17T22:31:57.785Z,479.08
2022-09-17T22:38:59.380Z,490.27
2022-09-17T22:46:01.424Z,485.20
2022-09-17T22:53:02.987Z,488.70
2022-09-17T23:00:06.102Z,485.65
2022-09-17T23:07:07.710Z,493.85
2022-09-17T23:14:11.935Z,492.05
2022-09-17T23:21:15.184Z,485.52
2022-09-17T23:28:16.710Z,491.58
2022-09-17T23:35:18.288Z,482.52
2022-09-17T23:42:19.837Z,485.65
2022-09-17T23:49:21.395Z,486.25
2022-09-17T23:56:25.099Z,481.85
